Time;durP1;ratioP1;P1;durP2;ratioP2;P2;SDS_P1;SDS_P2;PMS_P1;PMS_P2;Temp;Humidity;BMP_temperature;BMP_pressure;BME280_temperature;BME280_humidity;BME280_pressure;Samples;Min_cycle;Max_cycle;Signal;HPM_P1;HPM_P2
2022/06/02 00:02:02;;;;;;;2.63;2.08;;;;;;;17.64;73.72;95655.59;4961303;28;20231;-87
2022/06/02 00:04:36;;;;;;;2.25;2.05;;;;;;;17.64;73.76;95651.22;4967831;28;20234;-88
2022/06/02 00:07:07;;;;;;;2.25;2.05;;;;;;;17.66;73.19;95662.22;4971259;28;20196;-87
2022/06/02 00:09:48;;;;;;;2.05;1.90;;;;;;;17.64;73.99;95661.63;4968889;28;20243;-87
2022/06/02 00:12:23;;;;;;;2.15;2.05;;;;;;;17.63;73.89;95670.44;4959971;28;20684;-87
2022/06/02 00:14:56;;;;;;;2.53;2.17;;;;;;;17.61;73.96;95667.25;4971018;28;20273;-87
2022/06/02 00:17:34;;;;;;;2.05;1.95;;;;;;;17.55;73.90;95663.69;4967225;28;20283;-87
2022/06/02 00:20:05;;;;;;;2.17;2.05;;;;;;;17.58;73.52;95667.66;4974492;28;20231;-88
2022/06/02 00:22:39;;;;;;;2.40;2.20;;;;;;;17.56;73.94;95665.28;4974953;28;20208;-87
2022/06/02 00:25:11;;;;;;;2.58;1.95;;;;;;;17.54;73.78;95674.31;4968747;28;20224;-88
2022/06/02 00:27:44;;;;;;;2.20;2.00;;;;;;;17.55;73.98;95671.50;4975137;28;20245;-87
2022/06/02 00:30:19;;;;;;;4.85;2.33;;;;;;;17.56;74.20;95680.09;4962672;28;20298;-88
2022/06/02 00:32:54;;;;;;;1.92;1.83;;;;;;;17.58;73.81;95694.50;4972357;28;20602;-88
2022/06/02 00:35:28;;;;;;;2.40;2.20;;;;;;;17.56;74.22;95701.72;4979325;28;20262;-87
2022/06/02 00:38:01;;;;;;;2.50;2.13;;;;;;;17.52;74.41;95694.56;4987293;28;20220;-88
2022/06/02 00:40:29;;;;;;;2.35;2.10;;;;;;;17.48;74.27;95701.25;4990618;28;20247;-86
2022/06/02 00:43:14;;;;;;;2.20;2.10;;;;;;;17.39;74.70;95705.13;4986089;28;20215;-87
2022/06/02 00:45:42;;;;;;;2.15;2.00;;;;;;;17.42;74.26;95702.09;4973199;28;20205;-88
2022/06/02 00:48:18;;;;;;;2.10;2.00;;;;;;;17.40;74.73;95691.91;4978176;28;20216;-88
2022/06/02 00:50:58;;;;;;;2.22;2.00;;;;;;;17.34;75.31;95695.34;4973188;28;20291;-88
2022/06/02 00:53:37;;;;;;;2.47;2.28;;;;;;;17.34;74.92;95690.16;4973457;28;20575;-88
2022/06/02 00:59:10;;;;;;;2.40;2.20;;;;;;;17.21;75.89;95704.09;4977451;28;20332;-88
2022/06/02 01:01:38;;;;;;;2.95;2.22;;;;;;;17.16;75.78;95700.53;4973141;28;20683;-88
2022/06/02 01:04:10;;;;;;;2.30;2.10;;;;;;;17.12;76.39;95712.41;4953157;28;20221;-87
2022/06/02 01:06:50;;;;;;;2.15;2.05;;;;;;;17.11;76.53;95713.41;4965759;28;20208;-87
2022/06/02 01:09:37;;;;;;;2.17;2.00;;;;;;;17.13;76.31;95719.97;4965006;28;20243;-88
2022/06/02 01:12:16;;;;;;;2.30;2.20;;;;;;;17.08;75.98;95704.22;4970503;28;20200;-88
2022/06/02 01:14:58;;;;;;;3.97;2.20;;;;;;;17.01;76.22;95713.88;4973564;28;20208;-87
2022/06/02 01:17:33;;;;;;;2.40;2.20;;;;;;;17.04;75.91;95713.47;4973387;28;20302;-88
2022/06/02 01:20:23;;;;;;;2.63;2.10;;;;;;;17.06;76.24;95708.84;4973966;28;20646;-88
2022/06/02 01:23:37;;;;;;;2.20;2.00;;;;;;;17.09;76.07;95707.63;4977372;28;20200;-87
2022/06/02 01:26:33;;;;;;;2.38;2.20;;;;;;;17.05;76.39;95715.06;4967362;28;20657;-87
2022/06/02 01:29:05;;;;;;;2.38;2.17;;;;;;;17.04;76.02;95715.25;4976887;28;20314;-87
2022/06/02 01:31:48;;;;;;;2.03;1.90;;;;;;;17.03;76.00;95722.28;4974048;28;20205;-88
2022/06/02 01:34:35;;;;;;;2.30;2.17;;;;;;;17.02;76.74;95717.28;4940779;29;20637;-88
2022/06/02 01:37:07;;;;;;;2.10;1.90;;;;;;;17.00;76.77;95714.09;4977311;28;20270;-87
2022/06/02 01:40:06;;;;;;;3.00;2.08;;;;;;;17.01;76.93;95718.28;4971532;28;20315;-88
2022/06/02 01:42:47;;;;;;;2.60;2.10;;;;;;;17.01;77.25;95713.09;4969821;28;20492;-88
2022/06/02 01:45:19;;;;;;;2.53;1.95;;;;;;;16.98;77.68;95711.69;4967253;28;20276;-87
2022/06/02 01:47:53;;;;;;;2.50;2.30;;;;;;;17.01;77.15;95715.69;4977047;28;20220;-87
2022/06/02 01:50:31;;;;;;;2.20;1.92;;;;;;;17.01;77.84;95706.06;4966615;28;20282;-88
2022/06/02 01:53:08;;;;;;;2.83;2.05;;;;;;;17.03;77.40;95696.25;4972651;28;20207;-87
2022/06/02 01:55:59;;;;;;;2.00;1.80;;;;;;;17.10;77.54;95698.81;4968887;28;20570;-87
2022/06/02 01:58:40;;;;;;;1.92;1.83;;;;;;;17.12;77.13;95702.78;4959785;28;20248;-87
2022/06/02 02:01:15;;;;;;;2.17;2.00;;;;;;;17.16;76.98;95703.94;4964505;28;20726;-87
2022/06/02 02:03:51;;;;;;;1.85;1.75;;;;;;;17.08;77.36;95703.44;4969965;28;20232;-87
2022/06/02 02:06:27;;;;;;;3.63;2.13;;;;;;;17.12;76.66;95705.41;4970739;28;20211;-87
2022/06/02 02:09:11;;;;;;;2.10;2.00;;;;;;;17.08;77.09;95700.81;4974785;28;20227;-88
2022/06/02 02:11:50;;;;;;;2.05;1.95;;;;;;;17.07;77.09;95710.44;4976542;28;20200;-88
2022/06/02 02:14:48;;;;;;;2.70;2.10;;;;;;;17.07;77.25;95715.63;4963072;28;20560;-87
2022/06/02 02:17:37;;;;;;;2.30;2.10;;;;;;;17.08;76.72;95709.44;4963895;28;20630;-86
2022/06/02 02:20:17;;;;;;;2.10;2.00;;;;;;;17.08;76.49;95721.63;4958604;28;20232;-87
2022/06/02 02:22:48;;;;;;;2.20;2.00;;;;;;;17.03;76.42;95717.06;4977219;28;20200;-88
2022/06/02 02:25:22;;;;;;;1.73;1.63;;;;;;;17.03;76.09;95717.06;4962201;28;20294;-87
2022/06/02 02:28:04;;;;;;;2.75;1.92;;;;;;;17.05;76.39;95716.84;4967950;28;20224;-88
2022/06/02 02:30:40;;;;;;;2.00;1.90;;;;;;;16.98;76.62;95716.91;4975420;28;20640;-87
2022/06/02 02:33:18;;;;;;;2.10;2.00;;;;;;;17.01;76.30;95723.50;4968028;28;20200;-87
2022/06/02 02:35:54;;;;;;;2.35;1.80;;;;;;;17.02;76.41;95712.88;4969315;28;20425;-88
2022/06/02 02:38:41;;;;;;;2.35;2.00;;;;;;;16.97;76.22;95717.13;4968406;28;20246;-87
2022/06/02 02:41:13;;;;;;;1.80;1.70;;;;;;;16.93;76.54;95711.56;4961557;28;20199;-88
2022/06/02 02:43:47;;;;;;;2.88;1.85;;;;;;;16.87;76.36;95712.41;4968941;28;20212;-88
2022/06/02 02:46:19;;;;;;;1.73;1.63;;;;;;;16.95;76.06;95713.91;4969503;28;20274;-86
2022/06/02 02:48:55;;;;;;;2.00;1.90;;;;;;;16.96;75.93;95715.53;4969315;28;20232;-88
2022/06/02 02:51:34;;;;;;;1.80;1.70;;;;;;;16.95;75.88;95714.72;4973413;28;20200;-87
2022/06/02 02:54:09;;;;;;;1.90;1.80;;;;;;;16.96;75.93;95720.72;4965023;28;20714;-88
2022/06/02 02:56:42;;;;;;;2.13;1.90;;;;;;;16.98;75.89;95735.09;4965611;28;20860;-88
2022/06/02 02:59:19;;;;;;;2.17;1.85;;;;;;;16.96;75.55;95736.31;4961327;28;20661;-87
2022/06/02 03:01:54;;;;;;;2.08;1.98;;;;;;;16.96;75.46;95720.72;4969415;28;20200;-88
2022/06/02 03:04:34;;;;;;;2.92;2.30;;;;;;;16.81;76.38;95716.63;4965437;28;20291;-88
2022/06/02 03:07:02;;;;;;;2.05;1.95;;;;;;;16.80;76.13;95719.44;4972909;28;20196;-87
2022/06/02 03:09:35;;;;;;;1.90;1.80;;;;;;;16.73;77.08;95721.31;4971058;28;20242;-87
2022/06/02 03:12:09;;;;;;;3.05;2.10;;;;;;;16.67;77.09;95730.75;4974518;28;20204;-87
2022/06/02 03:15:08;;;;;;;2.75;1.98;;;;;;;16.66;77.31;95728.34;4971974;28;20207;-87
2022/06/02 03:17:48;;;;;;;2.20;2.00;;;;;;;16.64;77.15;95722.56;4942760;28;20221;-88
2022/06/02 03:20:19;;;;;;;2.55;2.00;;;;;;;16.58;77.72;95724.97;4962393;28;20232;-86
2022/06/02 03:23:02;;;;;;;2.20;2.00;;;;;;;16.54;77.80;95729.00;4968343;28;20615;-86
2022/06/02 03:25:33;;;;;;;2.20;2.00;;;;;;;16.52;77.50;95733.63;4976088;28;20220;-87
2022/06/02 03:28:15;;;;;;;2.00;1.90;;;;;;;16.56;77.74;95736.56;4962099;28;20582;-88
2022/06/02 03:30:52;;;;;;;2.25;2.08;;;;;;;16.53;77.22;95731.81;4967221;28;20284;-88
2022/06/02 03:33:35;;;;;;;2.40;1.90;;;;;;;16.40;77.88;95740.47;4958138;28;20918;-89
2022/06/02 03:36:13;;;;;;;2.17;2.08;;;;;;;16.45;77.52;95747.66;4976527;28;20227;-88
2022/06/02 03:38:53;;;;;;;2.60;2.20;;;;;;;16.50;77.75;95734.84;4971205;28;20319;-89
2022/06/02 03:41:53;;;;;;;2.30;1.90;;;;;;;16.48;77.89;95734.25;4972679;28;20204;-88
2022/06/02 03:44:31;;;;;;;2.17;2.05;;;;;;;16.49;77.29;95733.25;4965706;28;20219;-89
2022/06/02 03:47:17;;;;;;;2.45;2.00;;;;;;;16.43;77.60;95737.47;4971105;28;20219;-88
2022/06/02 03:49:56;;;;;;;3.28;2.50;;;;;;;16.35;78.17;95753.31;4977020;28;20231;-89
2022/06/02 03:52:39;;;;;;;3.03;2.20;;;;;;;16.38;78.39;95747.69;4964224;28;20200;-88
2022/06/02 03:55:19;;;;;;;2.63;2.17;;;;;;;16.35;78.08;95748.13;4960868;28;20200;-88
2022/06/02 03:58:08;;;;;;;2.60;2.20;;;;;;;16.36;78.50;95760.09;4971981;28;20228;-88
2022/06/02 04:00:46;;;;;;;3.72;2.40;;;;;;;16.34;79.05;95748.31;4963792;28;20235;-87
2022/06/02 04:03:26;;;;;;;2.88;2.20;;;;;;;16.38;78.86;95752.06;4971819;28;20209;-87
2022/06/02 04:06:10;;;;;;;2.00;1.90;;;;;;;16.34;79.47;95762.13;4982347;28;20233;-88
2022/06/02 04:08:49;;;;;;;2.28;2.08;;;;;;;16.45;78.60;95760.66;4965586;28;20299;-88
2022/06/02 04:13:37;;;;;;;2.35;2.15;;;;;;;16.44;78.88;95761.66;4956106;28;20209;-88
2022/06/02 04:14:27;;;;;;;2.00;1.90;;;;;;;16.53;78.52;95756.00;4966400;28;20217;-89
2022/06/02 04:17:01;;;;;;;2.53;1.95;;;;;;;16.50;79.38;95766.81;4969086;28;20196;-87
2022/06/02 04:22:42;;;;;;;2.13;2.03;;;;;;;16.41;80.63;95769.84;4968452;28;20219;-88
2022/06/02 04:25:19;;;;;;;3.00;2.03;;;;;;;16.42;80.77;95767.06;4975509;28;20232;-87
2022/06/02 04:27:56;;;;;;;2.40;2.20;;;;;;;16.47;79.65;95769.84;4976605;28;20224;-88
2022/06/02 04:30:31;;;;;;;2.60;2.40;;;;;;;16.56;79.16;95770.38;4989532;28;20220;-87
2022/06/02 04:33:08;;;;;;;3.47;2.65;;;;;;;16.53;79.58;95771.59;4986282;28;20216;-88
2022/06/02 04:35:42;;;;;;;2.85;2.55;;;;;;;16.52;79.43;95774.41;4978076;28;20291;-89
2022/06/02 04:38:17;;;;;;;2.58;2.38;;;;;;;16.57;79.82;95788.34;4945435;28;20216;-88
2022/06/02 04:40:54;;;;;;;2.72;2.40;;;;;;;16.66;79.22;95796.75;4964721;28;20204;-88
2022/06/02 04:43:32;;;;;;;2.70;2.50;;;;;;;16.60;80.01;95797.53;4966460;28;20263;-87
2022/06/02 04:46:15;;;;;;;2.30;2.10;;;;;;;16.61;79.89;95800.94;4954530;28;20652;-88
2022/06/02 04:48:51;;;;;;;2.53;2.33;;;;;;;16.60;79.39;95794.94;4960227;28;20240;-88
2022/06/02 04:51:29;;;;;;;2.78;2.58;;;;;;;16.57;79.66;95797.97;4959571;29;20201;-88
2022/06/02 04:54:05;;;;;;;2.75;2.40;;;;;;;16.54;80.41;95801.00;4960943;29;20212;-88
2022/06/02 04:56:49;;;;;;;3.90;3.60;;;;;;;16.59;81.61;95788.94;4959631;29;20248;-88
2022/06/02 04:59:52;;;;;;;3.30;3.00;;;;;;;16.46;82.26;95798.63;4960111;28;20239;-88
2022/06/02 05:02:29;;;;;;;2.83;2.63;;;;;;;16.64;80.53;95793.56;4961416;28;20197;-87
2022/06/02 05:05:06;;;;;;;2.60;2.40;;;;;;;16.76;79.86;95797.06;4954281;29;20220;-86
2022/06/02 05:08:13;;;;;;;3.00;2.80;;;;;;;16.93;79.36;95800.00;4957367;28;20224;-86
2022/06/02 05:10:48;;;;;;;2.42;2.22;;;;;;;17.07;78.74;95800.69;4946943;28;20668;-88
2022/06/02 05:13:27;;;;;;;2.67;2.40;;;;;;;17.10;78.08;95795.88;4957167;29;20196;-87
2022/06/02 05:16:08;;;;;;;2.53;2.28;;;;;;;17.18;78.35;95798.19;4957940;29;20288;-87
2022/06/02 05:18:51;;;;;;;5.80;3.88;;;;;;;17.01;78.99;95797.13;4956664;28;20243;-88
2022/06/02 05:21:46;;;;;;;11.73;6.38;;;;;;;17.01;79.86;95802.31;4956704;29;20267;-86
2022/06/02 05:24:41;;;;;;;9.00;4.43;;;;;;;17.10;80.86;95805.47;4956632;29;20220;-86
2022/06/02 05:27:36;;;;;;;3.63;2.60;;;;;;;17.24;78.43;95807.75;4957093;28;20283;-87
2022/06/02 05:30:25;;;;;;;2.60;2.40;;;;;;;17.24;78.47;95805.16;4956126;28;20233;-86
2022/06/02 05:33:25;;;;;;;3.00;2.22;;;;;;;17.44;76.52;95804.19;4957351;29;20208;-86
2022/06/02 05:36:07;;;;;;;2.60;2.40;;;;;;;17.57;75.91;95814.50;4957597;29;20829;-87
2022/06/02 05:39:00;;;;;;;3.28;2.72;;;;;;;17.62;76.30;95814.66;4956475;28;20239;-86
2022/06/02 05:41:48;;;;;;;2.75;2.35;;;;;;;17.63;75.42;95831.06;4955724;28;20708;-86
2022/06/02 05:44:25;;;;;;;2.90;2.60;;;;;;;17.59;76.90;95828.09;4957317;28;20212;-88
2022/06/02 05:47:10;;;;;;;23.63;21.23;;;;;;;17.61;75.98;95826.06;4957645;28;20204;-85
2022/06/02 05:49:49;;;;;;;13.88;12.48;;;;;;;17.78;75.27;95832.34;4967886;28;20232;-87
2022/06/02 05:52:23;;;;;;;13.05;11.85;;;;;;;18.03;74.49;95831.50;4966784;28;20204;-87
2022/06/02 05:55:15;;;;;;;4.72;4.32;;;;;;;18.13;73.03;95821.38;4957957;29;20616;-86
2022/06/02 05:57:56;;;;;;;4.43;3.80;;;;;;;18.09;72.60;95818.41;4957649;28;20231;-87
2022/06/02 06:00:32;;;;;;;3.65;3.35;;;;;;;18.10;72.77;95827.81;4956268;28;20274;-86
2022/06/02 06:03:32;;;;;;;4.18;3.88;;;;;;;18.11;72.25;95826.81;4956353;29;20248;-87
2022/06/02 06:06:04;;;;;;;4.15;3.85;;;;;;;18.14;72.40;95817.75;4958504;28;20719;-87
2022/06/02 06:08:49;;;;;;;4.63;4.22;;;;;;;18.11;72.13;95805.94;4957756;28;20403;-86
2022/06/02 06:11:31;;;;;;;6.20;4.13;;;;;;;18.25;70.83;95812.63;4958616;29;20205;-88
2022/06/02 06:14:26;;;;;;;6.57;4.10;;;;;;;18.28;70.28;95814.78;4962774;28;20235;-86
2022/06/02 06:17:03;;;;;;;5.03;4.00;;;;;;;18.37;69.28;95824.91;4972867;28;20209;-87
2022/06/02 06:19:53;;;;;;;5.72;3.92;;;;;;;18.19;70.47;95823.13;4968917;28;20250;-87
2022/06/02 06:22:43;;;;;;;4.03;3.70;;;;;;;18.34;70.66;95825.34;4959619;28;20204;-86
2022/06/02 06:25:22;;;;;;;4.20;3.90;;;;;;;18.37;70.24;95823.09;4951915;28;20227;-88
2022/06/02 06:28:05;;;;;;;4.80;4.20;;;;;;;18.40;69.45;95821.88;4959711;28;20240;-88
2022/06/02 06:30:45;;;;;;;5.40;4.18;;;;;;;18.40;69.87;95820.06;4958341;28;20232;-88
2022/06/02 06:33:17;;;;;;;5.22;4.57;;;;;;;18.25;70.28;95819.66;4957824;28;20204;-87
2022/06/02 06:36:08;;;;;;;5.10;4.60;;;;;;;18.38;70.80;95832.50;4963524;28;20204;-85
2022/06/02 06:39:00;;;;;;;18.25;16.45;;;;;;;18.41;69.94;95831.28;4962531;28;20228;-87
2022/06/02 06:41:40;;;;;;;19.35;17.55;;;;;;;18.42;70.12;95840.69;4971818;28;20212;-86
2022/06/02 06:44:14;;;;;;;6.20;5.60;;;;;;;18.39;69.89;95847.16;4961601;28;20223;-87
2022/06/02 06:46:46;;;;;;;5.68;4.85;;;;;;;18.36;70.38;95839.75;4969638;28;20224;-87
2022/06/02 06:49:18;;;;;;;4.93;4.40;;;;;;;18.46;70.23;95844.47;4968285;28;20288;-86
2022/06/02 06:52:00;;;;;;;5.22;4.80;;;;;;;18.47;69.61;95841.63;4971491;28;20208;-87
2022/06/02 06:54:39;;;;;;;4.78;4.38;;;;;;;18.56;70.72;95839.53;4974495;28;20565;-87
2022/06/02 06:57:10;;;;;;;6.13;4.47;;;;;;;18.45;70.28;95837.66;4962661;28;20208;-86
2022/06/02 06:59:55;;;;;;;5.15;4.75;;;;;;;18.37;68.53;95838.75;4968031;28;20229;-87
2022/06/02 07:02:45;;;;;;;4.60;4.20;;;;;;;18.49;68.63;95839.59;4965947;28;20200;-88
2022/06/02 07:05:18;;;;;;;4.68;4.25;;;;;;;18.61;68.97;95845.72;4962612;28;20223;-88
2022/06/02 07:07:54;;;;;;;5.32;4.35;;;;;;;18.40;69.46;95846.13;4979001;28;20244;-87
2022/06/02 07:10:30;;;;;;;5.00;4.50;;;;;;;18.45;70.46;95851.50;4966130;28;20224;-86
2022/06/02 07:13:06;;;;;;;4.68;4.28;;;;;;;18.61;70.27;95852.72;4971001;28;20609;-86
2022/06/02 07:15:44;;;;;;;4.82;4.43;;;;;;;18.73;69.15;95855.38;4974721;28;20199;-87
2022/06/02 07:18:21;;;;;;;7.38;5.97;;;;;;;18.72;68.83;95859.00;4962806;28;20599;-88
2022/06/02 07:20:54;;;;;;;5.50;4.95;;;;;;;18.83;68.61;95864.28;4965065;28;20620;-88
2022/06/02 07:23:34;;;;;;;4.05;3.75;;;;;;;18.88;67.37;95856.56;4976148;28;20398;-87
2022/06/02 07:26:14;;;;;;;4.50;4.10;;;;;;;18.97;66.86;95860.47;4960067;28;20236;-87
2022/06/02 07:28:55;;;;;;;4.88;3.92;;;;;;;19.09;67.69;95860.50;4959362;28;20232;-87
2022/06/02 07:31:37;;;;;;;4.50;4.07;;;;;;;19.23;67.27;95848.88;4961046;28;20208;-85
2022/06/02 07:34:19;;;;;;;6.03;4.38;;;;;;;19.29;66.88;95842.75;4969000;28;20208;-87
2022/06/02 07:37:20;;;;;;;5.07;4.03;;;;;;;19.25;66.24;95851.22;4973618;28;20200;-87
2022/06/02 07:40:26;;;;;;;4.75;4.35;;;;;;;19.34;65.51;95852.50;4975418;28;20235;-87
2022/06/02 07:43:31;;;;;;;4.10;3.80;;;;;;;19.63;65.06;95843.03;4975653;28;20207;-87
2022/06/02 07:46:17;;;;;;;4.10;3.80;;;;;;;19.74;63.67;95846.69;4968244;28;20220;-88
2022/06/02 07:49:30;;;;;;;6.22;4.18;;;;;;;19.75;63.87;95845.66;4977930;28;20232;-89
2022/06/02 07:52:06;;;;;;;4.35;3.83;;;;;;;19.87;63.91;95854.28;4958969;28;20721;-89
2022/06/02 07:54:42;;;;;;;5.38;3.85;;;;;;;20.05;61.90;95854.16;4961358;28;20208;-87
2022/06/02 07:57:18;;;;;;;6.03;4.03;;;;;;;20.02;62.02;95859.84;4970349;28;20210;-88
2022/06/02 07:59:56;;;;;;;4.00;3.70;;;;;;;20.15;62.78;95858.81;4967701;28;20322;-87
2022/06/02 08:02:39;;;;;;;3.95;3.63;;;;;;;20.32;62.04;95859.69;4972860;28;20220;-88
2022/06/02 08:05:19;;;;;;;4.80;3.78;;;;;;;20.44;61.82;95857.09;4960878;28;20216;-88
2022/06/02 08:07:53;;;;;;;3.95;3.55;;;;;;;20.50;60.73;95864.81;4962170;28;20653;-88
2022/06/02 08:10:28;;;;;;;4.25;3.80;;;;;;;20.45;60.34;95851.63;4964908;28;20485;-88
2022/06/02 08:13:03;;;;;;;4.47;3.90;;;;;;;20.56;61.07;95856.03;4971026;28;20210;-88
2022/06/02 08:15:42;;;;;;;4.60;4.15;;;;;;;20.67;59.66;95857.81;4971677;28;20206;-88
2022/06/02 08:18:24;;;;;;;4.38;3.60;;;;;;;20.82;59.54;95856.50;4956816;28;20220;-88
2022/06/02 08:20:57;;;;;;;4.43;4.07;;;;;;;20.90;57.89;95859.56;4966840;28;20219;-86
2022/06/02 08:23:47;;;;;;;4.10;3.75;;;;;;;20.90;59.06;95870.03;4962982;28;20210;-88
2022/06/02 08:26:20;;;;;;;3.53;3.30;;;;;;;21.08;58.95;95868.25;4953854;28;20240;-88
2022/06/02 08:29:04;;;;;;;3.70;3.40;;;;;;;21.16;59.62;95868.66;4968706;28;20218;-88
2022/06/02 08:31:51;;;;;;;4.22;3.80;;;;;;;21.12;59.26;95862.31;4968310;28;20197;-88
2022/06/02 08:34:26;;;;;;;7.38;6.53;;;;;;;21.18;58.17;95863.16;4964171;28;20211;-87
2022/06/02 08:37:08;;;;;;;16.38;14.88;;;;;;;21.22;59.08;95877.41;4967529;28;20251;-87
2022/06/02 08:39:51;;;;;;;7.00;6.32;;;;;;;21.22;59.33;95875.59;4973327;28;20227;-86
2022/06/02 08:42:36;;;;;;;7.95;6.68;;;;;;;21.37;58.34;95873.22;4959187;28;20557;-89
2022/06/02 08:45:26;;;;;;;4.53;3.70;;;;;;;21.50;57.46;95872.16;4969552;28;20208;-87
2022/06/02 08:48:16;;;;;;;4.07;3.63;;;;;;;21.74;56.92;95864.91;4978215;28;20248;-89
2022/06/02 08:51:13;;;;;;;4.28;3.58;;;;;;;22.04;55.35;95860.13;4970586;28;20434;-87
2022/06/02 08:54:21;;;;;;;5.63;4.43;;;;;;;21.96;54.54;95862.34;4974117;28;20200;-88
2022/06/02 08:57:12;;;;;;;4.63;3.88;;;;;;;22.14;54.88;95864.72;4956294;28;20204;-87
2022/06/02 09:00:11;;;;;;;4.88;3.90;;;;;;;22.20;52.74;95870.81;4977006;28;20260;-88
2022/06/02 09:02:54;;;;;;;4.43;3.60;;;;;;;22.10;53.76;95875.94;4965246;28;20224;-88
2022/06/02 09:06:01;;;;;;;4.30;3.90;;;;;;;21.87;54.45;95874.28;4970646;28;20271;-88
2022/06/02 09:08:49;;;;;;;4.53;4.03;;;;;;;21.75;54.57;95878.78;4969448;28;20232;-88
2022/06/02 09:11:47;;;;;;;4.30;3.90;;;;;;;21.95;54.09;95873.84;4962164;28;20211;-88
2022/06/02 09:14:46;;;;;;;4.40;3.97;;;;;;;22.23;53.24;95873.75;4969636;28;20204;-88
2022/06/02 09:17:27;;;;;;;4.50;4.10;;;;;;;22.56;52.73;95869.44;4942068;28;20292;-88
2022/06/02 09:20:12;;;;;;;5.47;4.00;;;;;;;22.70;50.69;95870.69;4973435;28;20235;-87
2022/06/02 09:23:20;;;;;;;24.08;21.42;;;;;;;22.79;51.39;95869.22;4967591;28;20291;-88
2022/06/02 09:26:05;;;;;;;13.00;11.70;;;;;;;22.92;51.45;95887.22;4935200;28;20615;-88
2022/06/02 09:29:02;;;;;;;9.20;5.95;;;;;;;22.87;50.54;95887.19;4970496;28;20246;-88
2022/06/02 09:31:40;;;;;;;5.00;4.53;;;;;;;22.96;50.65;95879.63;4970046;28;20200;-88
2022/06/02 09:34:26;;;;;;;4.82;4.43;;;;;;;23.04;49.84;95880.00;4972974;28;20204;-87
2022/06/02 09:37:33;;;;;;;7.00;4.40;;;;;;;22.66;51.24;95883.50;4979394;28;20228;-87
2022/06/02 09:40:16;;;;;;;4.25;3.85;;;;;;;22.46;52.62;95882.44;4970933;28;20316;-87
2022/06/02 09:43:11;;;;;;;6.50;5.10;;;;;;;22.28;51.34;95881.72;4968893;28;20209;-88
2022/06/02 09:45:57;;;;;;;5.03;4.57;;;;;;;22.25;51.00;95884.00;4982840;28;20208;-87
2022/06/02 09:48:43;;;;;;;5.60;4.28;;;;;;;22.17;52.29;95884.41;4969829;28;20236;-87
2022/06/02 09:51:35;;;;;;;5.10;3.92;;;;;;;22.26;52.73;95885.59;4966241;28;20206;-88
2022/06/02 09:54:25;;;;;;;4.00;3.65;;;;;;;22.30;53.65;95876.22;4966856;28;20232;-87
2022/06/02 10:00:11;;;;;;;10.00;4.22;;;;;;;22.34;50.35;95882.56;4965979;28;20243;-88
2022/06/02 10:02:46;;;;;;;4.72;4.10;;;;;;;22.36;51.51;95876.03;4970906;28;20208;-88
2022/06/02 10:05:32;;;;;;;5.30;3.72;;;;;;;22.58;50.22;95872.63;4958983;28;20217;-87
2022/06/02 10:08:13;;;;;;;4.63;4.25;;;;;;;22.56;48.85;95880.72;4972547;28;20338;-88
2022/06/02 10:11:01;;;;;;;8.35;4.35;;;;;;;22.57;50.37;95871.81;4966852;28;20232;-87
2022/06/02 10:13:51;;;;;;;12.20;3.83;;;;;;;22.88;50.63;95873.00;4966071;28;20216;-88
2022/06/02 10:16:44;;;;;;;5.40;4.22;;;;;;;23.17;48.69;95876.19;4962259;28;20573;-88
2022/06/02 10:19:47;;;;;;;5.47;3.92;;;;;;;23.03;49.85;95867.91;4959974;28;20251;-88
2022/06/02 10:22:22;;;;;;;4.50;4.05;;;;;;;23.05;49.17;95865.81;4968660;28;20227;-87
2022/06/02 10:25:13;;;;;;;4.40;4.10;;;;;;;23.21;48.73;95869.38;4974601;28;20203;-88
2022/06/02 10:28:23;;;;;;;5.57;4.10;;;;;;;23.58;48.35;95866.06;4980962;28;20224;-87
2022/06/02 10:31:20;;;;;;;5.15;4.47;;;;;;;23.95;46.33;95864.22;4947592;28;20677;-88
2022/06/02 10:34:21;;;;;;;4.47;3.92;;;;;;;24.18;45.42;95857.78;4978368;28;20231;-85
2022/06/02 10:37:12;;;;;;;4.88;3.75;;;;;;;24.42;45.53;95858.97;4991255;28;20200;-87
2022/06/02 10:40:09;;;;;;;3.88;3.40;;;;;;;24.45;44.69;95863.72;4967664;28;20217;-87
2022/06/02 10:42:49;;;;;;;6.45;3.72;;;;;;;24.22;45.87;95855.44;4977047;28;20201;-87
2022/06/02 10:45:39;;;;;;;16.52;15.02;;;;;;;24.19;47.05;95862.00;4964578;28;20203;-88
2022/06/02 10:48:37;;;;;;;7.93;7.22;;;;;;;24.00;47.50;95871.34;4968394;28;20252;-87
2022/06/02 10:51:35;;;;;;;15.75;4.35;;;;;;;23.68;48.33;95863.50;4958265;28;20207;-87
2022/06/02 10:54:33;;;;;;;4.15;3.78;;;;;;;23.39;48.63;95863.78;4959930;28;20208;-88
2022/06/02 10:57:31;;;;;;;3.75;3.45;;;;;;;23.11;47.88;95863.22;4962875;28;20200;-87
2022/06/02 11:00:19;;;;;;;9.55;3.55;;;;;;;22.90;49.02;95865.66;4971552;28;20259;-87
2022/06/02 11:03:35;;;;;;;3.92;3.53;;;;;;;22.64;48.74;95869.81;4976335;28;20204;-87
2022/06/02 11:06:33;;;;;;;4.05;3.72;;;;;;;22.67;49.61;95869.34;4952194;28;20262;-87
2022/06/02 11:09:30;;;;;;;10.15;9.18;;;;;;;22.87;48.62;95866.16;4972286;28;20236;-87
2022/06/02 11:12:41;;;;;;;6.22;4.43;;;;;;;22.98;49.70;95861.81;4971415;28;20669;-87
2022/06/02 11:15:34;;;;;;;9.07;7.70;;;;;;;22.93;49.45;95857.28;4943450;28;20203;-86
2022/06/02 11:18:49;;;;;;;4.35;3.95;;;;;;;23.11;49.57;95856.13;4977877;28;20216;-87
2022/06/02 11:21:51;;;;;;;4.22;3.40;;;;;;;23.47;47.30;95854.66;4968721;28;20599;-87
2022/06/02 11:24:51;;;;;;;3.80;3.38;;;;;;;23.69;49.02;95849.28;4945677;29;20212;-88
2022/06/02 11:27:52;;;;;;;5.22;3.53;;;;;;;23.67;47.18;95843.50;4969596;28;20224;-85
2022/06/02 11:30:40;;;;;;;4.97;3.50;;;;;;;23.47;46.39;95840.72;4958542;28;20248;-87
2022/06/02 11:33:30;;;;;;;8.18;3.40;;;;;;;23.34;47.20;95841.91;4969241;28;20208;-87
2022/06/02 11:36:26;;;;;;;6.85;3.88;;;;;;;23.02;47.18;95832.19;4961026;28;20620;-87
2022/06/02 11:39:31;;;;;;;5.55;3.90;;;;;;;22.66;49.15;95835.44;4974597;28;20263;-87
2022/06/02 11:42:07;;;;;;;4.47;4.07;;;;;;;22.54;49.07;95835.56;4973584;28;20203;-87
2022/06/02 11:44:44;;;;;;;4.93;4.50;;;;;;;22.64;49.39;95840.94;4972058;28;20203;-86
2022/06/02 11:47:43;;;;;;;6.65;3.83;;;;;;;22.66;48.83;95828.38;4938549;29;20228;-87
2022/06/02 11:50:33;;;;;;;4.10;3.80;;;;;;;22.69;50.92;95829.72;4961022;28;20700;-85
2022/06/02 11:53:44;;;;;;;4.10;3.58;;;;;;;22.65;49.74;95836.50;4960718;28;20231;-87
2022/06/02 11:56:14;;;;;;;4.32;4.00;;;;;;;22.50;50.21;95831.88;4960511;28;20225;-85
2022/06/02 11:59:20;;;;;;;4.20;3.80;;;;;;;22.67;49.84;95842.28;4967937;28;20251;-86
2022/06/02 12:02:01;;;;;;;59.53;54.03;;;;;;;22.70;49.04;95832.09;4973498;28;20287;-86
2022/06/02 12:04:48;;;;;;;9.48;8.48;;;;;;;22.74;49.25;95835.00;4958554;28;20204;-87
2022/06/02 12:07:42;;;;;;;5.68;5.18;;;;;;;22.76;48.98;95835.53;4965782;28;20239;-85
2022/06/02 12:10:42;;;;;;;4.93;4.40;;;;;;;22.71;49.58;95840.72;4949758;28;20232;-87
2022/06/02 12:13:22;;;;;;;5.57;4.30;;;;;;;22.74;49.76;95843.66;4940445;28;20290;-87
2022/06/02 12:16:10;;;;;;;4.30;3.90;;;;;;;22.79;49.84;95835.09;4971427;28;20255;-87
2022/06/02 12:18:49;;;;;;;7.47;5.20;;;;;;;22.70;48.57;95839.97;4975040;28;20236;-87
2022/06/02 12:21:48;;;;;;;5.10;4.70;;;;;;;22.68;48.98;95828.13;4969678;28;20196;-86
2022/06/02 12:24:31;;;;;;;5.03;3.90;;;;;;;22.73;49.33;95830.78;4958880;28;20208;-87
2022/06/02 12:27:26;;;;;;;4.38;3.65;;;;;;;22.70;49.07;95832.09;4975361;28;20282;-87
2022/06/02 12:30:18;;;;;;;5.22;4.00;;;;;;;22.69;48.93;95830.50;4957092;28;20240;-87
2022/06/02 12:32:57;;;;;;;4.65;4.30;;;;;;;22.62;49.34;95832.50;4977118;28;20204;-87
2022/06/02 12:35:50;;;;;;;3.90;3.53;;;;;;;22.59;49.86;95840.09;4965352;28;20207;-87
2022/06/02 12:38:40;;;;;;;5.07;3.65;;;;;;;22.50;51.04;95842.38;4937672;29;20221;-86
2022/06/02 12:41:26;;;;;;;5.43;3.88;;;;;;;22.36;50.41;95855.03;4976518;28;20606;-86
2022/06/02 12:44:12;;;;;;;5.18;3.85;;;;;;;22.23;50.43;95852.78;4964268;28;20200;-87
2022/06/02 12:46:59;;;;;;;5.07;3.40;;;;;;;22.12;53.14;95860.75;4972719;28;20200;-86
2022/06/02 12:49:53;;;;;;;4.57;4.18;;;;;;;22.00;55.05;95853.78;4973407;28;20228;-87
2022/06/02 12:52:38;;;;;;;4.30;4.00;;;;;;;21.93;55.49;95842.66;4953842;28;20205;-87
2022/06/02 12:55:27;;;;;;;5.68;4.40;;;;;;;21.98;55.99;95836.66;4967398;28;20270;-86
2022/06/02 12:58:18;;;;;;;5.85;4.25;;;;;;;22.04;54.57;95825.25;4976516;28;20220;-87
2022/06/02 13:01:00;;;;;;;5.65;4.60;;;;;;;22.51;54.11;95814.28;4972832;28;20271;-86